City of Sunrise, Florida
Current Conditions -  °F | °C
As of 3:53 PM on Friday 19 Dec 2014 (Local Time) from KFXE Reporting Station
Few Clouds Few Clouds  
Wind Chill: 76°   Ceiling: Unl
Heat Index: 76°   Visibility: 10mi
Dew Point: 61°   Wind: 10mph
Humidity: 60%   Direction: 120°ESE
Pressure: 30.03"   Gusts: NA
Location:  26.1495°N, 80.2263°W
Report Text: KFXE 192053Z 12009KT 10SM FEW034 24/16 A3003 RMK AO2 SLP170 T02440161 56010
Loading
Personal Weather Stations






























Interactive Weather Map New forecast layout! Learn more

10-Day Weather Forecast

Advertisements
Track Severe Weather on mobile